Time;durP1;ratioP1;P1;durP2;ratioP2;P2;SDS_P1;SDS_P2;PMS_P1;PMS_P2;Temp;Humidity;BMP_temperature;BMP_pressure;BME280_temperature;BME280_humidity;BME280_pressure;Samples;Min_cycle;Max_cycle;Signal;HPM_P1;HPM_P2
2022/12/11 00:00:53;;;;;;;32.83;24.13;;;;;;;-2.41;100.00;99576.94;5063083;28;20471;-70
2022/12/11 00:03:18;;;;;;;40.17;24.90;;;;;;;-2.33;100.00;99582.75;5091138;28;20188;-70
2022/12/11 00:05:45;;;;;;;39.37;25.07;;;;;;;-2.27;100.00;99586.88;5094145;28;20185;-70
2022/12/11 00:08:14;;;;;;;32.20;23.80;;;;;;;-2.28;100.00;99583.53;5086089;28;20230;-70
2022/12/11 00:10:47;;;;;;;37.03;25.80;;;;;;;-2.21;100.00;99588.50;5074191;28;20699;-69
2022/12/11 00:13:12;;;;;;;34.60;25.43;;;;;;;-2.40;100.00;99582.84;5102334;28;20506;-69
2022/12/11 00:15:37;;;;;;;33.23;24.23;;;;;;;-2.32;100.00;99579.41;5076287;27;20246;-68
2022/12/11 00:18:02;;;;;;;35.57;24.07;;;;;;;-2.37;100.00;99586.16;5109595;27;20275;-68
2022/12/11 00:20:28;;;;;;;34.47;23.63;;;;;;;-2.36;100.00;99577.72;5080186;28;20303;-69
2022/12/11 00:22:53;;;;;;;33.13;23.73;;;;;;;-2.31;100.00;99582.72;5107579;28;20277;-69
2022/12/11 00:25:18;;;;;;;33.33;23.03;;;;;;;-2.29;100.00;99581.88;5091378;28;20543;-70
2022/12/11 00:27:45;;;;;;;34.43;23.90;;;;;;;-2.23;100.00;99582.66;5074036;28;20240;-69
2022/12/11 00:30:11;;;;;;;31.73;22.20;;;;;;;-2.20;100.00;99583.44;5061145;28;20620;-70
2022/12/11 00:32:36;;;;;;;32.63;22.50;;;;;;;-2.17;100.00;99587.63;5075687;28;20482;-70
2022/12/11 00:35:02;;;;;;;33.83;23.70;;;;;;;-2.14;100.00;99592.66;5075702;28;20583;-71
2022/12/11 00:37:27;;;;;;;32.50;23.60;;;;;;;-2.15;100.00;99590.97;5072866;28;20175;-69
2022/12/11 00:39:53;;;;;;;32.17;21.60;;;;;;;-2.18;100.00;99591.84;5091309;28;20178;-69
2022/12/11 00:42:18;;;;;;;31.33;23.13;;;;;;;-2.20;100.00;99593.53;5112330;27;20590;-69
2022/12/11 00:44:43;;;;;;;34.40;23.13;;;;;;;-2.40;100.00;99592.91;5094218;28;20586;-69
2022/12/11 00:47:09;;;;;;;31.60;21.83;;;;;;;-2.47;100.00;99598.00;5085490;28;20177;-68
2022/12/11 00:49:35;;;;;;;31.63;23.00;;;;;;;-2.39;100.00;99589.53;5087266;28;20240;-70
2022/12/11 00:52:00;;;;;;;29.23;21.73;;;;;;;-2.19;100.00;99586.81;5098732;28;20223;-68
2022/12/11 00:54:26;;;;;;;30.97;22.33;;;;;;;-2.12;100.00;99591.78;5096312;28;20551;-68
2022/12/11 00:56:51;;;;;;;30.20;22.43;;;;;;;-1.99;100.00;99586.59;5088938;28;20205;-69
2022/12/11 00:59:16;;;;;;;32.47;23.07;;;;;;;-1.96;100.00;99581.50;5103551;28;20192;-68
2022/12/11 01:01:41;;;;;;;29.60;21.60;;;;;;;-1.86;100.00;99580.56;5102513;28;20647;-68
2022/12/11 01:04:07;;;;;;;33.67;23.20;;;;;;;-1.80;100.00;99583.00;5092793;28;20204;-67
2022/12/11 01:06:33;;;;;;;32.63;22.00;;;;;;;-1.79;100.00;99586.34;5091557;28;20213;-68
2022/12/11 01:11:43;;;;;;;31.60;22.80;;;;;;;-1.89;100.00;99584.81;5093091;28;20346;-67
2022/12/11 01:14:10;;;;;;;33.40;23.40;;;;;;;-1.88;100.00;99592.34;5091266;28;20260;-68
2022/12/11 01:16:36;;;;;;;30.77;21.50;;;;;;;-1.86;100.00;99582.25;5109097;28;20289;-68
2022/12/11 01:19:02;;;;;;;32.83;22.90;;;;;;;-2.05;100.00;99589.19;5091523;28;20657;-68
2022/12/11 01:21:27;;;;;;;30.00;22.33;;;;;;;-1.88;100.00;99587.31;5094492;28;20277;-69
2022/12/11 01:23:53;;;;;;;40.47;24.43;;;;;;;-1.99;100.00;99584.06;5093481;28;20582;-68
2022/12/11 01:26:19;;;;;;;36.03;23.47;;;;;;;-1.89;100.00;99587.34;5084549;28;20199;-67
2022/12/11 01:28:48;;;;;;;31.47;22.67;;;;;;;-1.79;100.00;99589.72;5092662;28;20182;-68
2022/12/11 01:31:15;;;;;;;34.57;24.27;;;;;;;-1.80;100.00;99585.53;5091889;28;20221;-69
2022/12/11 01:33:41;;;;;;;33.73;24.33;;;;;;;-1.99;100.00;99584.06;5091190;28;20205;-68
2022/12/11 01:36:13;;;;;;;34.03;24.27;;;;;;;-1.90;100.00;99583.97;5093765;28;20199;-68
2022/12/11 01:38:39;;;;;;;33.40;24.93;;;;;;;-1.73;100.00;99583.75;5090801;28;20230;-68
2022/12/11 01:41:05;;;;;;;35.47;25.20;;;;;;;-1.69;100.00;99584.56;5084354;28;20236;-68
2022/12/11 01:43:31;;;;;;;33.87;23.97;;;;;;;-1.79;100.00;99591.41;5091679;28;20218;-68
2022/12/11 01:45:56;;;;;;;35.37;23.73;;;;;;;-1.79;100.00;99593.94;5090230;28;20201;-68
2022/12/11 01:48:26;;;;;;;39.80;25.73;;;;;;;-1.88;100.00;99586.50;5089500;28;20535;-68
2022/12/11 01:51:03;;;;;;;32.40;24.47;;;;;;;-1.89;100.00;99583.13;5076873;28;20239;-68
2022/12/11 01:53:33;;;;;;;33.80;25.20;;;;;;;-2.01;100.00;99589.16;5080207;28;20229;-68
2022/12/11 01:56:01;;;;;;;37.00;24.73;;;;;;;-1.84;100.00;99593.16;5091075;28;20309;-68
2022/12/11 01:58:32;;;;;;;36.60;25.80;;;;;;;-1.86;100.00;99594.84;5092115;28;20179;-68
2022/12/11 02:00:59;;;;;;;38.60;25.10;;;;;;;-1.86;100.00;99595.69;5084862;28;20306;-68
2022/12/11 02:03:24;;;;;;;36.60;25.63;;;;;;;-1.95;100.00;99595.78;5081705;28;20190;-69
2022/12/11 02:05:50;;;;;;;39.67;26.20;;;;;;;-1.83;100.00;99597.34;5091255;28;20186;-69
2022/12/11 02:08:16;;;;;;;35.73;24.80;;;;;;;-1.87;100.00;99588.97;5089919;28;20218;-69
2022/12/11 02:10:48;;;;;;;37.87;25.43;;;;;;;-1.89;100.00;99590.69;5082602;28;20234;-68
2022/12/11 02:13:22;;;;;;;39.20;27.53;;;;;;;-1.91;100.00;99589.03;5102071;28;20234;-68
2022/12/11 02:16:24;;;;;;;37.60;25.80;;;;;;;-2.04;100.00;99594.22;5091652;28;20640;-68
2022/12/11 02:19:17;;;;;;;36.67;26.30;;;;;;;-1.93;100.00;99590.72;4993562;28;20219;-69
2022/12/11 02:21:48;;;;;;;34.17;23.30;;;;;;;-1.97;100.00;99595.81;4998356;28;20236;-68
2022/12/11 02:24:25;;;;;;;35.53;25.07;;;;;;;-2.12;100.00;99598.50;4993686;28;20660;-68
2022/12/11 02:27:01;;;;;;;33.20;24.20;;;;;;;-1.96;100.00;99609.25;4990380;28;20215;-68
2022/12/11 02:29:44;;;;;;;32.30;23.57;;;;;;;-2.10;100.00;99606.88;4984727;28;20636;-68
2022/12/11 02:32:15;;;;;;;36.43;25.97;;;;;;;-2.23;100.00;99602.81;5000904;28;20628;-68
2022/12/11 02:35:10;;;;;;;33.87;23.47;;;;;;;-2.37;100.00;99602.94;5012187;28;20213;-68
2022/12/11 02:37:39;;;;;;;32.17;21.87;;;;;;;-2.14;100.00;99601.03;5019697;28;20184;-69
2022/12/11 02:40:09;;;;;;;35.57;23.07;;;;;;;-2.09;100.00;99602.69;5002744;28;20185;-68
2022/12/11 02:42:39;;;;;;;34.57;24.10;;;;;;;-2.08;100.00;99604.34;5013104;28;20216;-68
2022/12/11 02:45:06;;;;;;;35.53;23.87;;;;;;;-2.09;100.00;99600.16;5008790;28;20242;-69
2022/12/11 02:47:32;;;;;;;36.47;24.90;;;;;;;-2.08;100.00;99602.66;5021658;28;20193;-69
2022/12/11 02:50:01;;;;;;;35.53;24.30;;;;;;;-2.20;100.00;99600.28;5028144;28;20551;-68
2022/12/11 02:52:31;;;;;;;37.27;25.27;;;;;;;-2.22;100.00;99595.25;5016993;28;20266;-68
2022/12/11 02:54:58;;;;;;;36.60;25.97;;;;;;;-2.23;100.00;99586.03;5035335;28;20245;-68
2022/12/11 02:57:34;;;;;;;34.00;23.40;;;;;;;-2.08;100.00;99585.03;5089803;28;20183;-68
2022/12/11 03:00:00;;;;;;;32.87;24.47;;;;;;;-2.01;100.00;99589.16;5086195;28;20183;-68
2022/12/11 03:02:25;;;;;;;35.83;24.33;;;;;;;-1.92;100.00;99583.16;5069715;28;20620;-68
2022/12/11 03:04:51;;;;;;;36.03;25.00;;;;;;;-2.17;100.00;99583.44;5091837;28;20172;-68
2022/12/11 03:07:23;;;;;;;34.97;24.57;;;;;;;-2.07;100.00;99583.31;5073076;28;20188;-68
2022/12/11 03:09:50;;;;;;;35.40;22.87;;;;;;;-2.48;100.00;99586.25;5091056;28;20344;-68
2022/12/11 03:12:21;;;;;;;33.60;23.63;;;;;;;-2.52;100.00;99588.81;5073730;28;20245;-69
2022/12/11 03:14:47;;;;;;;33.53;23.73;;;;;;;-2.41;100.00;99589.53;5089981;28;20645;-68
2022/12/11 03:17:22;;;;;;;33.63;23.07;;;;;;;-2.38;100.00;99594.56;5090935;28;20175;-68
2022/12/11 03:19:58;;;;;;;36.07;25.03;;;;;;;-2.58;100.00;99589.69;5106956;28;20423;-68
2022/12/11 03:22:33;;;;;;;33.47;23.80;;;;;;;-2.46;100.00;99591.28;5096800;28;20264;-69
2022/12/11 03:25:07;;;;;;;33.47;24.53;;;;;;;-2.36;100.00;99599.59;5107108;28;20419;-68
2022/12/11 03:27:39;;;;;;;32.47;23.73;;;;;;;-2.49;100.00;99597.19;5090913;28;20418;-68
2022/12/11 03:30:12;;;;;;;33.13;22.67;;;;;;;-2.47;100.00;99600.53;5063293;28;20236;-68
2022/12/11 03:32:44;;;;;;;30.93;23.53;;;;;;;-2.28;100.00;99601.19;5106144;28;20542;-68
2022/12/11 03:35:33;;;;;;;36.07;24.93;;;;;;;-2.27;100.00;99600.34;5075590;28;20418;-68
2022/12/11 03:38:07;;;;;;;37.17;23.47;;;;;;;-2.27;100.00;99600.34;5093647;28;20193;-68
2022/12/11 03:40:34;;;;;;;39.53;25.00;;;;;;;-2.09;100.00;99595.13;5089475;27;20233;-69
2022/12/11 03:42:59;;;;;;;31.10;23.27;;;;;;;-2.06;100.00;99602.63;5088507;28;20176;-68
2022/12/11 03:45:28;;;;;;;33.00;22.73;;;;;;;-1.92;100.00;99597.44;5095245;28;20664;-67
2022/12/11 03:47:57;;;;;;;35.87;24.00;;;;;;;-1.96;100.00;99592.44;5068693;28;20180;-69
2022/12/11 03:50:27;;;;;;;33.70;23.07;;;;;;;-1.84;100.00;99599.00;5087344;27;20346;-68
2022/12/11 03:52:53;;;;;;;31.00;23.33;;;;;;;-1.75;100.00;99589.69;5090156;28;20242;-67
2022/12/11 03:55:21;;;;;;;29.90;22.73;;;;;;;-1.84;100.00;99591.44;5095363;28;20725;-69
2022/12/11 03:57:47;;;;;;;35.93;24.17;;;;;;;-1.96;100.00;99596.63;5073461;28;20181;-68
2022/12/11 04:00:15;;;;;;;34.00;23.17;;;;;;;-2.00;100.00;99593.34;5066766;28;20618;-68
2022/12/11 04:02:41;;;;;;;34.10;22.47;;;;;;;-1.83;100.00;99595.66;5089290;28;20309;-68
2022/12/11 04:05:10;;;;;;;32.60;23.20;;;;;;;-1.84;100.00;99595.66;5094814;28;20273;-67
2022/12/11 04:07:35;;;;;;;31.67;23.00;;;;;;;-1.70;100.00;99593.81;5094316;28;20190;-67
2022/12/11 04:10:01;;;;;;;31.00;22.43;;;;;;;-1.70;100.00;99591.31;5093506;28;20180;-68
2022/12/11 04:12:26;;;;;;;32.17;21.43;;;;;;;-1.71;100.00;99588.78;5092998;27;20260;-68
2022/12/11 04:15:03;;;;;;;28.27;21.83;;;;;;;-1.74;100.00;99589.66;5046608;28;20181;-67
2022/12/11 04:25:46;;;;;;;33.97;23.27;;;;;;;-2.36;100.00;99587.00;5065946;28;20191;-68
2022/12/11 04:28:11;;;;;;;29.97;22.13;;;;;;;-2.57;100.00;99593.06;5054178;28;20192;-67
2022/12/11 04:30:37;;;;;;;31.50;21.43;;;;;;;-2.38;100.00;99592.06;5028584;28;20250;-68
2022/12/11 04:33:02;;;;;;;30.90;22.20;;;;;;;-2.44;100.00;99582.03;5065853;28;20560;-67
2022/12/11 04:35:28;;;;;;;35.47;24.13;;;;;;;-2.38;100.00;99592.06;5055801;28;20181;-67
2022/12/11 04:37:53;;;;;;;34.33;23.87;;;;;;;-2.21;100.00;99581.78;5059445;28;20551;-68
2022/12/11 04:40:19;;;;;;;32.80;23.03;;;;;;;-2.15;100.00;99585.94;5056193;28;20290;-68
2022/12/11 04:42:44;;;;;;;29.23;22.07;;;;;;;-2.03;100.00;99592.53;5087047;28;20630;-68
2022/12/11 04:45:11;;;;;;;32.87;22.73;;;;;;;-2.44;100.00;99587.06;5053330;28;20218;-67
2022/12/11 04:47:38;;;;;;;33.67;24.23;;;;;;;-2.41;100.00;99578.66;5067412;28;20537;-68
2022/12/11 04:50:05;;;;;;;30.70;22.83;;;;;;;-2.31;100.00;99576.03;5057133;28;20178;-67
2022/12/11 04:52:31;;;;;;;33.87;23.47;;;;;;;-2.17;100.00;99577.53;5072327;28;20673;-68
2022/12/11 04:54:56;;;;;;;30.17;22.13;;;;;;;-2.17;100.00;99583.44;5067271;28;20175;-68
2022/12/11 04:57:21;;;;;;;30.10;22.83;;;;;;;-2.04;100.00;99586.66;5073366;28;20202;-68
2022/12/11 04:59:47;;;;;;;32.33;24.30;;;;;;;-2.16;100.00;99581.75;5068568;28;20184;-67
2022/12/11 05:02:13;;;;;;;30.13;22.43;;;;;;;-2.02;100.00;99582.44;5062245;28;20342;-68
2022/12/11 05:04:38;;;;;;;32.10;23.90;;;;;;;-1.92;100.00;99578.13;5065309;28;20180;-68
2022/12/11 05:07:03;;;;;;;29.97;22.90;;;;;;;-1.91;100.00;99584.84;5069799;28;20201;-68
2022/12/11 05:09:28;;;;;;;31.47;22.60;;;;;;;-1.92;100.00;99585.69;5063277;28;20181;-68
2022/12/11 05:11:54;;;;;;;34.43;23.43;;;;;;;-2.01;100.00;99585.78;5060540;28;20222;-68
2022/12/11 05:14:20;;;;;;;32.47;21.47;;;;;;;-2.17;100.00;99577.53;5083573;28;20702;-67
2022/12/11 05:16:45;;;;;;;30.40;22.57;;;;;;;-2.13;100.00;99574.97;5093318;28;20262;-67
2022/12/11 05:19:10;;;;;;;30.67;22.40;;;;;;;-2.08;100.00;99576.59;5100116;28;20316;-68
2022/12/11 05:21:36;;;;;;;36.03;24.20;;;;;;;-2.12;100.00;99573.31;5087853;28;20510;-67
2022/12/11 05:24:02;;;;;;;33.67;23.70;;;;;;;-2.13;100.00;99569.94;5091020;28;20257;-69
2022/12/11 05:26:27;;;;;;;32.73;23.50;;;;;;;-2.00;100.00;99577.38;5100584;28;20651;-67
2022/12/11 05:28:53;;;;;;;30.97;22.43;;;;;;;-1.96;100.00;99569.75;5093927;28;20184;-68
2022/12/11 05:31:21;;;;;;;31.70;23.83;;;;;;;-1.90;100.00;99570.53;5082656;28;20226;-68
2022/12/11 05:33:49;;;;;;;31.67;24.30;;;;;;;-2.01;100.00;99571.50;5111476;27;20238;-68
2022/12/11 05:36:19;;;;;;;30.57;22.47;;;;;;;-1.89;100.00;99564.66;5096383;28;20199;-66
2022/12/11 05:38:45;;;;;;;32.10;23.40;;;;;;;-2.08;100.00;99557.28;5113287;28;20190;-68
2022/12/11 05:41:13;;;;;;;33.10;22.97;;;;;;;-2.12;100.00;99548.13;5089033;28;20312;-67
2022/12/11 05:43:38;;;;;;;33.70;23.70;;;;;;;-2.23;100.00;99539.81;5112626;27;20176;-68
2022/12/11 05:46:10;;;;;;;33.83;24.57;;;;;;;-2.14;100.00;99538.03;5093056;28;20195;-68
2022/12/11 05:48:37;;;;;;;36.17;24.03;;;;;;;-2.22;100.00;99537.31;5092962;28;20183;-68
2022/12/11 05:51:03;;;;;;;32.00;24.10;;;;;;;-2.33;100.00;99529.00;5085162;27;20475;-67
2022/12/11 05:53:29;;;;;;;32.70;23.20;;;;;;;-2.38;100.00;99534.13;5112588;27;20289;-67
2022/12/11 05:56:03;;;;;;;32.60;24.30;;;;;;;-2.34;100.00;99538.25;5107615;28;20650;-68
2022/12/11 05:58:29;;;;;;;34.07;24.13;;;;;;;-2.17;100.00;99540.59;5093704;28;20655;-68
2022/12/11 06:00:54;;;;;;;31.60;24.07;;;;;;;-2.15;100.00;99540.56;5090575;28;20234;-68
2022/12/11 06:03:20;;;;;;;34.20;23.67;;;;;;;-2.03;100.00;99548.00;5103145;28;20237;-68
2022/12/11 06:05:45;;;;;;;30.07;22.43;;;;;;;-2.03;100.00;99555.56;5096983;28;20174;-67
2022/12/11 06:08:10;;;;;;;31.97;23.70;;;;;;;-2.24;100.00;99553.28;5074993;28;20198;-68
2022/12/11 06:10:36;;;;;;;34.60;22.50;;;;;;;-2.12;100.00;99556.50;5089440;27;20249;-68
2022/12/11 06:13:01;;;;;;;31.87;22.23;;;;;;;-1.94;100.00;99557.13;5117434;27;20226;-68
2022/12/11 06:15:26;;;;;;;29.93;21.37;;;;;;;-1.85;100.00;99554.50;5093860;28;20174;-68
2022/12/11 06:17:52;;;;;;;29.57;21.97;;;;;;;-2.01;100.00;99550.47;5092161;28;20190;-69
2022/12/11 06:20:17;;;;;;;31.90;21.93;;;;;;;-2.10;100.00;99551.44;5084147;28;20186;-69
2022/12/11 06:22:42;;;;;;;30.57;22.47;;;;;;;-2.16;100.00;99552.34;5094298;28;20640;-68
2022/12/11 06:25:08;;;;;;;29.30;21.60;;;;;;;-2.01;100.00;99553.00;5112528;28;20214;-68
2022/12/11 06:27:34;;;;;;;29.03;21.40;;;;;;;-2.03;100.00;99555.56;5111925;28;20614;-67
2022/12/11 06:29:59;;;;;;;29.40;21.53;;;;;;;-1.91;100.00;99556.25;5111791;28;20268;-68
2022/12/11 06:32:24;;;;;;;34.20;23.50;;;;;;;-2.03;100.00;99554.72;5084106;28;20225;-68
2022/12/11 06:34:49;;;;;;;31.03;22.57;;;;;;;-1.92;100.00;99557.09;5093228;28;20626;-68
2022/12/11 06:37:15;;;;;;;25.63;19.23;;;;;;;-1.70;100.00;99550.09;5093849;28;20181;-68
2022/12/11 06:39:40;;;;;;;27.90;21.20;;;;;;;-1.96;100.00;99544.56;5111521;28;20273;-68
2022/12/11 06:42:05;;;;;;;28.43;21.57;;;;;;;-1.96;100.00;99543.69;5083161;28;20713;-68
2022/12/11 06:44:31;;;;;;;32.87;23.13;;;;;;;-1.88;100.00;99541.09;5098656;28;20189;-68
2022/12/11 06:46:56;;;;;;;30.77;21.47;;;;;;;-2.00;100.00;99534.50;5111976;28;20182;-68
2022/12/11 06:49:21;;;;;;;29.57;20.83;;;;;;;-2.05;100.00;99538.78;5111934;28;20207;-68
2022/12/11 06:51:46;;;;;;;30.40;22.80;;;;;;;-1.96;100.00;99531.09;5086114;28;20225;-68
2022/12/11 06:54:12;;;;;;;30.23;22.23;;;;;;;-1.81;100.00;99527.53;5095828;28;20207;-68
2022/12/11 06:56:37;;;;;;;31.63;21.87;;;;;;;-1.76;100.00;99528.34;5095520;28;20190;-68
2022/12/11 06:59:02;;;;;;;31.43;23.53;;;;;;;-1.67;100.00;99535.78;5092220;28;20180;-68
2022/12/11 07:01:28;;;;;;;33.83;22.27;;;;;;;-1.51;100.00;99533.06;5087766;28;20753;-68
2022/12/11 07:03:55;;;;;;;28.77;21.10;;;;;;;-1.47;100.00;99534.66;5088081;28;20683;-68
2022/12/11 07:06:21;;;;;;;25.93;20.00;;;;;;;-1.42;100.00;99540.47;5091362;28;20196;-68
2022/12/11 07:08:46;;;;;;;29.03;21.47;;;;;;;-1.37;100.00;99538.72;5092481;28;20213;-68
2022/12/11 07:11:15;;;;;;;32.07;22.97;;;;;;;-1.40;100.00;99536.25;5096134;27;20234;-69
2022/12/11 07:13:43;;;;;;;29.77;21.03;;;;;;;-1.38;100.00;99539.56;5114293;28;20559;-68
2022/12/11 07:16:11;;;;;;;31.83;22.77;;;;;;;-1.30;100.00;99542.81;5111207;28;20194;-69
2022/12/11 07:18:42;;;;;;;29.40;22.93;;;;;;;-1.26;100.00;99551.19;5091205;28;20182;-68
2022/12/11 07:21:10;;;;;;;32.10;22.63;;;;;;;-1.43;100.00;99546.38;5082201;28;20761;-69
2022/12/11 07:23:36;;;;;;;32.83;24.47;;;;;;;-1.39;100.00;99547.16;5110373;28;20272;-69
2022/12/11 07:26:06;;;;;;;33.27;23.57;;;;;;;-1.37;100.00;99541.22;5091009;28;20277;-68
2022/12/11 07:28:33;;;;;;;33.00;23.37;;;;;;;-1.44;100.00;99539.66;5105767;28;20194;-69
2022/12/11 07:30:59;;;;;;;28.87;21.73;;;;;;;-1.52;100.00;99537.25;5074278;28;20717;-68
2022/12/11 07:33:24;;;;;;;31.57;22.27;;;;;;;-1.51;100.00;99533.06;5072167;28;20292;-69
2022/12/11 07:35:49;;;;;;;32.23;22.37;;;;;;;-1.52;100.00;99547.34;5109688;28;20181;-69
2022/12/11 07:38:16;;;;;;;30.50;22.73;;;;;;;-1.52;100.00;99552.38;5106202;28;20202;-69
2022/12/11 07:40:41;;;;;;;28.97;22.20;;;;;;;-1.62;100.00;99555.88;5091821;28;20316;-69
2022/12/11 07:43:06;;;;;;;30.80;21.33;;;;;;;-1.39;100.00;99558.09;5096323;28;20361;-68
2022/12/11 07:45:31;;;;;;;31.47;23.40;;;;;;;-1.25;100.00;99562.09;5091800;28;20688;-68
2022/12/11 07:47:57;;;;;;;34.33;24.43;;;;;;;-1.26;100.00;99560.44;5090886;28;20177;-69
2022/12/11 07:50:22;;;;;;;32.00;22.77;;;;;;;-1.78;100.00;99557.78;5087478;28;20223;-69
2022/12/11 07:52:47;;;;;;;31.00;22.87;;;;;;;-1.76;100.00;99553.56;5095895;28;20186;-69
2022/12/11 07:55:13;;;;;;;32.97;22.47;;;;;;;-1.44;100.00;99557.31;5102034;28;20549;-67
2022/12/11 07:57:38;;;;;;;29.17;20.77;;;;;;;-1.19;100.00;99549.38;5106913;28;20189;-67
2022/12/11 08:00:04;;;;;;;31.80;21.93;;;;;;;-1.06;100.00;99550.88;5095986;28;20185;-66
2022/12/11 08:02:30;;;;;;;31.70;23.20;;;;;;;-1.04;100.00;99551.69;5065200;28;20693;-67
2022/12/11 08:04:55;;;;;;;30.87;21.80;;;;;;;-1.30;100.00;99549.56;5092719;28;20183;-68
2022/12/11 08:07:20;;;;;;;32.83;21.50;;;;;;;-1.27;100.00;99557.06;5110656;28;20285;-67
2022/12/11 08:09:45;;;;;;;29.43;21.23;;;;;;;-1.35;100.00;99554.66;5110505;28;20193;-67
2022/12/11 08:12:12;;;;;;;27.50;20.10;;;;;;;-1.39;100.00;99557.25;5098819;28;20611;-67
2022/12/11 08:14:39;;;;;;;28.50;21.33;;;;;;;-1.22;100.00;99567.94;5109670;28;20581;-67
2022/12/11 08:17:05;;;;;;;30.43;22.00;;;;;;;-1.10;100.00;99571.97;5077458;28;20238;-67
2022/12/11 08:19:30;;;;;;;25.60;20.20;;;;;;;-0.97;100.00;99572.59;5084792;28;20181;-68
2022/12/11 08:21:55;;;;;;;27.87;20.53;;;;;;;-0.93;100.00;99575.91;5085027;28;20287;-69
2022/12/11 08:24:21;;;;;;;26.93;20.50;;;;;;;-0.84;100.00;99576.63;5095214;28;20700;-67
2022/12/11 08:26:47;;;;;;;25.83;20.03;;;;;;;-0.84;100.00;99576.63;5093605;28;20199;-67
2022/12/11 08:29:13;;;;;;;32.53;22.17;;;;;;;-0.76;100.00;99563.84;5093295;28;20168;-67
2022/12/11 08:31:39;;;;;;;32.80;23.40;;;;;;;-0.61;100.00;99567.00;5038930;28;20232;-67
2022/12/11 08:34:05;;;;;;;30.13;22.17;;;;;;;-0.84;100.00;99560.63;5068963;28;20204;-67
2022/12/11 08:36:30;;;;;;;28.60;22.00;;;;;;;-0.60;100.00;99566.13;5093091;28;20275;-67
2022/12/11 08:38:56;;;;;;;33.20;22.83;;;;;;;-0.44;100.00;99564.19;5092660;28;20180;-67
2022/12/11 08:41:27;;;;;;;31.30;23.40;;;;;;;-0.43;100.00;99568.38;5085274;28;20664;-67
2022/12/11 08:43:53;;;;;;;35.00;24.00;;;;;;;-0.63;100.00;99572.06;5098277;28;20651;-67
2022/12/11 08:46:23;;;;;;;31.60;23.43;;;;;;;-0.67;100.00;99572.97;5089168;28;20710;-66
2022/12/11 08:48:49;;;;;;;29.30;22.83;;;;;;;-0.57;100.00;99564.38;5080697;28;20266;-67
2022/12/11 08:51:16;;;;;;;30.73;22.13;;;;;;;-0.41;100.00;99566.63;5075601;28;20616;-67
2022/12/11 08:53:42;;;;;;;32.63;22.40;;;;;;;-0.23;100.00;99565.47;5099703;28;20717;-66
2022/12/11 08:56:11;;;;;;;28.53;21.53;;;;;;;-0.18;100.00;99556.09;5090373;28;20937;-67
2022/12/11 08:58:36;;;;;;;32.23;22.83;;;;;;;-0.49;100.00;99557.50;5083224;28;20603;-68
2022/12/11 09:01:07;;;;;;;28.30;22.07;;;;;;;-0.17;100.00;99555.25;5087081;28;20220;-67
2022/12/11 09:03:33;;;;;;;27.90;21.07;;;;;;;-0.08;100.00;99552.53;5093196;28;20549;-67
2022/12/11 09:05:58;;;;;;;27.53;21.43;;;;;;;0.04;100.00;99553.13;5093027;28;20191;-67
2022/12/11 09:08:24;;;;;;;28.83;21.07;;;;;;;0.10;100.00;99543.75;5093155;28;20653;-67
2022/12/11 09:10:49;;;;;;;29.23;21.20;;;;;;;0.16;100.00;99545.31;5088576;28;20267;-67
2022/12/11 09:13:15;;;;;;;27.50;21.97;;;;;;;0.64;100.00;99541.75;5097109;28;20228;-68
2022/12/11 09:15:40;;;;;;;25.77;20.30;;;;;;;1.31;100.00;99532.59;5089247;28;20269;-68
2022/12/11 09:18:06;;;;;;;25.67;20.20;;;;;;;1.44;100.00;99533.94;5091635;28;20703;-68
2022/12/11 09:20:31;;;;;;;27.47;21.13;;;;;;;1.62;100.00;99537.66;5071526;28;20216;-69
2022/12/11 09:22:56;;;;;;;25.10;19.87;;;;;;;1.57;100.00;99534.44;5107865;27;20183;-67
2022/12/11 09:25:22;;;;;;;22.23;18.53;;;;;;;1.41;100.00;99529.75;5092587;28;20183;-67
2022/12/11 09:27:47;;;;;;;27.20;20.33;;;;;;;1.39;100.00;99536.56;5091193;28;20280;-67
2022/12/11 09:30:13;;;;;;;25.10;19.73;;;;;;;1.51;100.00;99537.13;5070104;28;20605;-68
2022/12/11 09:32:38;;;;;;;27.83;21.73;;;;;;;0.84;100.00;99540.47;5091755;28;20289;-68
2022/12/11 09:35:04;;;;;;;24.13;19.40;;;;;;;0.29;100.00;99544.19;5090930;28;20236;-68
2022/12/11 09:37:29;;;;;;;23.00;18.43;;;;;;;0.22;100.00;99545.19;5090750;28;20189;-68
2022/12/11 09:39:54;;;;;;;23.87;18.77;;;;;;;0.05;100.00;99552.28;5091837;28;20647;-68
2022/12/11 09:42:31;;;;;;;26.90;20.77;;;;;;;-0.08;100.00;99554.22;5064742;28;20251;-68
2022/12/11 09:45:01;;;;;;;24.67;19.23;;;;;;;0.20;100.00;99548.59;5079110;28;20187;-68
2022/12/11 09:47:37;;;;;;;24.37;19.63;;;;;;;0.09;100.00;99547.13;5080596;28;20186;-68
2022/12/11 09:50:21;;;;;;;26.73;19.90;;;;;;;0.17;100.00;99543.63;5100816;28;20658;-67
2022/12/11 09:53:19;;;;;;;25.23;20.20;;;;;;;0.40;100.00;99541.44;5094742;28;20228;-68
2022/12/11 09:55:59;;;;;;;27.30;20.50;;;;;;;0.58;100.00;99540.22;5092408;28;20208;-68
2022/12/11 09:58:38;;;;;;;25.00;19.70;;;;;;;0.44;100.00;99532.91;5080130;28;20203;-68
2022/12/11 10:01:17;;;;;;;33.03;20.07;;;;;;;0.45;100.00;99533.75;5085157;28;20221;-67
2022/12/11 10:03:53;;;;;;;26.80;21.10;;;;;;;0.42;100.00;99533.81;5091201;28;20249;-67
2022/12/11 10:06:27;;;;;;;28.43;20.63;;;;;;;0.02;100.00;99532.94;5090704;28;20186;-67
2022/12/11 10:09:11;;;;;;;25.77;20.23;;;;;;;-0.55;100.00;99536.56;5090604;28;20214;-68
2022/12/11 10:11:57;;;;;;;29.17;20.90;;;;;;;-0.47;100.00;99539.78;5094232;28;20232;-68
2022/12/11 10:14:52;;;;;;;30.63;22.57;;;;;;;-0.53;100.00;99542.44;5073824;28;20265;-68
2022/12/11 10:17:22;;;;;;;29.83;21.43;;;;;;;-0.35;100.00;99528.59;5090471;28;20176;-68
2022/12/11 10:19:48;;;;;;;28.80;21.37;;;;;;;-0.22;100.00;99535.09;5091480;28;20190;-68
2022/12/11 10:22:25;;;;;;;29.93;22.67;;;;;;;-0.22;100.00;99527.53;5096856;27;20229;-67
2022/12/11 10:24:56;;;;;;;29.27;22.67;;;;;;;-0.19;100.00;99524.09;5087412;28;20626;-68
2022/12/11 10:27:27;;;;;;;29.40;21.87;;;;;;;-0.14;100.00;99522.31;5076655;28;20196;-69
2022/12/11 10:30:18;;;;;;;27.77;20.13;;;;;;;-0.20;100.00;99523.28;5071887;28;20185;-68
2022/12/11 10:32:43;;;;;;;27.13;21.00;;;;;;;-0.26;100.00;99514.97;5044275;28;20221;-68
2022/12/11 10:35:18;;;;;;;27.63;20.63;;;;;;;-0.72;100.00;99529.28;5074872;28;20244;-68
2022/12/11 10:37:43;;;;;;;29.07;21.80;;;;;;;-0.72;100.00;99516.66;5091550;28;20175;-68
2022/12/11 10:40:09;;;;;;;24.90;19.33;;;;;;;-0.99;100.00;99519.63;5081578;28;20180;-69
2022/12/11 10:42:34;;;;;;;25.93;19.27;;;;;;;-1.01;100.00;99526.38;5090627;28;20639;-69
2022/12/11 10:45:03;;;;;;;25.37;20.03;;;;;;;-0.86;100.00;99519.41;5089833;28;20271;-69
2022/12/11 10:47:28;;;;;;;29.40;19.57;;;;;;;-0.85;100.00;99514.34;5091764;28;20392;-68
2022/12/11 10:49:57;;;;;;;26.10;20.10;;;;;;;-0.82;100.00;99510.91;5090304;28;20269;-68
2022/12/11 10:52:30;;;;;;;26.73;19.83;;;;;;;-0.96;100.00;99506.13;5080386;28;20608;-69
2022/12/11 10:55:06;;;;;;;26.33;19.40;;;;;;;-0.72;100.00;99507.41;5076791;28;20196;-68
2022/12/11 10:57:34;;;;;;;26.23;19.90;;;;;;;-0.26;100.00;99497.28;5072280;28;20592;-68
2022/12/11 11:00:00;;;;;;;28.33;19.13;;;;;;;-0.04;100.00;99498.53;5091308;28;20183;-69
2022/12/11 11:02:30;;;;;;;27.47;20.33;;;;;;;-0.01;100.00;99490.03;5078534;28;20224;-67
2022/12/11 11:04:57;;;;;;;25.30;19.10;;;;;;;0.47;100.00;99491.50;5072036;28;20276;-67
2022/12/11 11:07:28;;;;;;;25.30;18.83;;;;;;;0.64;100.00;99488.59;5073572;28;20192;-67
2022/12/11 11:10:08;;;;;;;23.47;18.10;;;;;;;0.89;100.00;99482.94;5090255;28;20634;-67
2022/12/11 11:12:38;;;;;;;23.23;18.07;;;;;;;0.79;100.00;99487.41;5061466;28;20232;-67
2022/12/11 11:15:18;;;;;;;23.37;18.23;;;;;;;0.53;100.00;99480.44;5079743;28;20185;-67
2022/12/11 11:17:51;;;;;;;24.97;19.13;;;;;;;0.16;100.00;99484.59;5078132;28;20180;-67
2022/12/11 11:20:19;;;;;;;23.57;17.27;;;;;;;0.07;100.00;99477.22;5081908;28;20269;-67
2022/12/11 11:22:57;;;;;;;24.30;17.23;;;;;;;-0.09;100.00;99482.59;5104440;28;20629;-67
2022/12/11 11:25:25;;;;;;;24.63;18.43;;;;;;;0.24;100.00;99482.75;5085371;28;20604;-68